Gilmanton, Wisconsin
Current Conditions -  °F | °C
As of 10:55 AM on Saturday 22 Nov 2014 (Local Time) from KONA Reporting Station
Overcast Overcast  
Wind Chill: 39°   Ceiling: 700
Heat Index: 39°   Visibility: 4mi
Dew Point: 36°   Wind: 0mph
Humidity: 87%   Direction: NA
Pressure: 29.79"   Gusts: NA
Location:  44.47°N, 91.68°W
Report Text: KONA 221655Z AUTO 00000KT 4SM OVC007 04/02 A2979 RMK AO2
Loading
Personal Weather Stations






























Interactive Weather Map New forecast layout! Learn more

10-Day Weather Forecast

Advertisements
Track Severe Weather on mobile